Time;durP1;ratioP1;P1;durP2;ratioP2;P2;SDS_P1;SDS_P2;PMS_P1;PMS_P2;Temp;Humidity;BMP_temperature;BMP_pressure;BME280_temperature;BME280_humidity;BME280_pressure;Samples;Min_cycle;Max_cycle;Signal;HPM_P1;HPM_P2
2023/12/14 00:01:17;;;;;;;25.40;10.50;;;;;;;15.26;57.53;100716.46;107101;1250;25287;-54
2023/12/14 00:03:44;;;;;;;27.50;12.30;;;;;;;15.27;57.54;100715.36;106878;1269;25357;-55
2023/12/14 00:06:11;;;;;;;28.80;11.10;;;;;;;15.29;57.52;100712.66;107147;1257;25356;-54
2023/12/14 00:08:38;;;;;;;21.10;10.90;;;;;;;15.29;57.53;100712.27;106898;1269;25375;-54
2023/12/14 00:11:06;;;;;;;25.30;10.90;;;;;;;15.31;57.56;100717.64;107073;1254;25484;-54
2023/12/14 00:13:33;;;;;;;29.50;11.50;;;;;;;15.31;57.65;100713.98;107094;1250;24054;-54
2023/12/14 00:16:00;;;;;;;26.70;12.10;;;;;;;15.31;57.66;100716.25;107130;1263;25340;-55
2023/12/14 00:18:27;;;;;;;31.70;12.10;;;;;;;15.30;57.64;100707.88;106797;1257;25360;-55
2023/12/14 00:20:55;;;;;;;26.40;10.90;;;;;;;15.31;57.65;100698.58;107032;1251;25423;-55
2023/12/14 00:23:23;;;;;;;25.30;11.50;;;;;;;15.30;57.77;100704.71;107121;1257;25356;-55
2023/12/14 00:25:50;;;;;;;25.20;11.80;;;;;;;15.31;57.79;100702.40;107159;1263;25337;-54
2023/12/14 00:28:17;;;;;;;23.10;11.20;;;;;;;15.32;57.78;100704.30;107121;1254;25366;-55
2023/12/14 00:30:44;;;;;;;23.50;11.20;;;;;;;15.32;57.85;100703.08;107085;1250;25488;-55
2023/12/14 00:33:11;;;;;;;28.90;12.70;;;;;;;15.33;57.79;100706.88;107119;1254;25366;-54
2023/12/14 00:35:38;;;;;;;26.70;12.20;;;;;;;15.34;57.78;100707.55;107152;1257;25327;-54
2023/12/14 00:38:05;;;;;;;25.90;11.60;;;;;;;15.35;57.79;100712.39;107123;1254;25489;-54
2023/12/14 00:40:32;;;;;;;30.00;11.00;;;;;;;15.35;57.72;100709.02;106862;1272;25356;-54
2023/12/14 00:42:59;;;;;;;26.30;11.60;;;;;;;15.36;57.75;100702.38;106805;1267;25421;-54
2023/12/14 00:45:26;;;;;;;25.20;11.40;;;;;;;15.37;57.76;100701.61;107062;1266;25411;-55
2023/12/14 00:47:53;;;;;;;23.90;11.10;;;;;;;15.38;57.72;100697.04;106885;1255;25347;-54
2023/12/14 00:50:20;;;;;;;28.70;12.20;;;;;;;15.38;57.76;100692.15;107174;1250;22580;-55
2023/12/14 00:52:47;;;;;;;26.00;10.80;;;;;;;15.38;57.74;100689.88;107008;1251;25350;-55
2023/12/14 00:55:14;;;;;;;30.30;11.30;;;;;;;15.39;57.62;100688.11;106875;1257;25337;-54
2023/12/14 00:57:41;;;;;;;29.00;10.80;;;;;;;15.39;57.54;100675.70;107210;1251;25405;-55
2023/12/14 01:00:10;;;;;;;23.20;9.90;;;;;;;15.39;57.51;100665.54;106955;1266;25347;-55
2023/12/14 01:02:37;;;;;;;23.10;10.60;;;;;;;15.39;57.43;100657.13;106897;1263;22614;-54
2023/12/14 01:05:05;;;;;;;25.60;10.20;;;;;;;15.40;57.39;100652.90;107070;1263;25338;-54
2023/12/14 01:07:32;;;;;;;29.80;10.90;;;;;;;15.41;57.36;100652.53;106814;1266;22708;-55
2023/12/14 01:09:59;;;;;;;22.50;10.60;;;;;;;15.42;57.28;100651.78;106952;1266;25414;-54
2023/12/14 01:12:26;;;;;;;26.90;10.90;;;;;;;15.42;57.24;100647.77;106874;1266;25350;-55
2023/12/14 01:14:53;;;;;;;25.80;10.20;;;;;;;15.43;57.24;100641.27;106855;1261;24355;-55
2023/12/14 01:17:20;;;;;;;21.60;10.90;;;;;;;15.44;57.21;100642.80;107092;1257;25484;-55
2023/12/14 01:19:47;;;;;;;24.10;10.60;;;;;;;15.45;57.19;100641.20;106788;1260;25351;-55
2023/12/14 01:22:14;;;;;;;30.20;10.90;;;;;;;15.45;57.15;100641.89;107077;1257;25375;-55
2023/12/14 01:24:43;;;;;;;26.00;9.70;;;;;;;15.46;57.21;100643.08;107192;1250;25255;-54
2023/12/14 01:27:13;;;;;;;28.40;11.80;;;;;;;15.47;57.09;100647.23;107070;1255;25347;-55
2023/12/14 01:29:40;;;;;;;40.10;12.50;;;;;;;15.48;57.13;100639.50;106767;1259;25360;-54
2023/12/14 01:32:07;;;;;;;25.00;9.60;;;;;;;15.48;57.15;100631.45;107124;1254;22526;-55
2023/12/14 01:34:34;;;;;;;22.80;9.50;;;;;;;15.48;57.06;100629.00;107106;1254;25427;-54
2023/12/14 01:37:01;;;;;;;24.90;9.20;;;;;;;15.49;56.99;100626.84;106955;1254;25375;-55
2023/12/14 01:39:28;;;;;;;22.50;9.20;;;;;;;15.50;57.05;100632.23;106734;1267;23472;-55
2023/12/14 01:41:55;;;;;;;24.10;9.90;;;;;;;15.51;57.07;100631.49;107026;1257;25445;-54
2023/12/14 01:44:22;;;;;;;22.80;9.40;;;;;;;15.51;56.99;100625.88;106994;1255;25366;-55
2023/12/14 01:46:49;;;;;;;21.40;8.40;;;;;;;15.53;56.94;100619.36;107052;1257;25493;-54
2023/12/14 01:49:16;;;;;;;28.60;10.20;;;;;;;15.54;56.87;100610.92;107128;1254;22639;-54
2023/12/14 01:51:43;;;;;;;28.90;10.10;;;;;;;15.54;56.95;100614.90;106934;1260;25517;-54
2023/12/14 01:54:10;;;;;;;32.20;10.90;;;;;;;15.54;57.01;100608.98;106916;1257;25376;-54
2023/12/14 01:56:37;;;;;;;23.60;9.90;;;;;;;15.54;57.00;100614.91;107113;1257;25366;-54
2023/12/14 01:59:04;;;;;;;27.30;10.30;;;;;;;15.54;57.10;100608.95;107190;1255;25487;-54
2023/12/14 02:01:45;;;;;;;23.20;10.10;;;;;;;15.55;57.08;100604.20;107060;1251;25375;-55
2023/12/14 02:04:12;;;;;;;19.40;9.50;;;;;;;15.55;56.98;100592.67;107046;1253;22532;-54
2023/12/14 02:06:40;;;;;;;24.20;10.10;;;;;;;15.55;56.97;100594.60;107089;1254;22640;-55
2023/12/14 02:09:07;;;;;;;27.80;9.60;;;;;;;15.55;56.98;100593.21;107111;1250;25487;-55
2023/12/14 02:11:34;;;;;;;27.70;10.00;;;;;;;15.54;56.97;100588.70;107021;1255;23340;-55
2023/12/14 02:14:05;;;;;;;29.50;9.70;;;;;;;15.53;57.01;100591.38;107083;1257;25433;-54
2023/12/14 02:16:32;;;;;;;22.20;9.20;;;;;;;15.54;56.98;100597.45;106840;1272;22681;-54
2023/12/14 02:18:59;;;;;;;28.00;9.30;;;;;;;15.52;57.04;100595.09;107062;1251;25507;-54
2023/12/14 02:21:27;;;;;;;25.30;9.70;;;;;;;15.52;57.02;100595.60;106875;1267;25347;-54
2023/12/14 02:23:54;;;;;;;20.60;8.70;;;;;;;15.52;56.97;100594.19;107118;1254;25405;-54
2023/12/14 02:26:21;;;;;;;19.20;8.10;;;;;;;15.52;57.09;100594.71;107193;1263;25491;-54
2023/12/14 02:28:48;;;;;;;25.30;9.40;;;;;;;15.53;57.09;100604.85;107078;1251;25372;-54
2023/12/14 02:31:15;;;;;;;25.80;9.80;;;;;;;15.53;57.10;100604.65;107166;1256;25396;-54
2023/12/14 02:33:42;;;;;;;25.20;10.10;;;;;;;15.54;57.18;100596.03;107147;1257;25402;-55
2023/12/14 02:36:09;;;;;;;23.30;9.70;;;;;;;15.54;57.15;100588.32;107118;1264;23359;-55
2023/12/14 02:38:36;;;;;;;26.90;10.80;;;;;;;15.56;57.28;100578.65;107167;1260;22527;-55
2023/12/14 02:41:03;;;;;;;22.90;9.90;;;;;;;15.57;57.31;100569.16;106794;1260;24242;-55
2023/12/14 02:43:31;;;;;;;28.10;10.00;;;;;;;15.58;57.30;100563.69;107096;1255;24201;-54
2023/12/14 02:46:01;;;;;;;22.00;10.80;;;;;;;15.59;57.34;100557.18;107188;1257;24192;-54
2023/12/14 02:48:29;;;;;;;21.00;9.50;;;;;;;15.60;57.31;100556.60;107172;1260;25322;-54
2023/12/14 02:50:57;;;;;;;25.70;9.70;;;;;;;15.60;57.42;100557.29;107138;1263;22530;-55
2023/12/14 02:53:24;;;;;;;26.00;10.80;;;;;;;15.61;57.46;100551.32;107090;1266;24370;-55
2023/12/14 02:55:51;;;;;;;27.80;10.30;;;;;;;15.60;57.52;100550.45;107132;1257;25366;-55
2023/12/14 02:58:18;;;;;;;24.50;10.20;;;;;;;15.61;57.59;100553.22;107042;1254;25375;-54
2023/12/14 03:00:45;;;;;;;33.10;10.70;;;;;;;15.61;57.62;100552.15;107101;1254;25338;-55
2023/12/14 03:03:12;;;;;;;26.40;10.20;;;;;;;15.62;57.66;100554.58;107208;1256;25395;-55
2023/12/14 03:05:39;;;;;;;31.50;11.00;;;;;;;15.61;57.66;100555.14;107081;1256;25414;-54
2023/12/14 03:08:06;;;;;;;20.10;8.80;;;;;;;15.61;57.69;100552.16;107191;1257;25392;-55
2023/12/14 03:10:33;;;;;;;26.60;10.00;;;;;;;15.62;57.73;100557.57;107094;1263;25465;-55
2023/12/14 03:13:01;;;;;;;27.40;10.80;;;;;;;15.62;57.69;100556.16;107026;1251;25376;-55
2023/12/14 03:15:28;;;;;;;26.50;10.10;;;;;;;15.62;57.80;100556.87;106762;1267;25372;-56
2023/12/14 03:17:54;;;;;;;28.60;9.70;;;;;;;15.61;57.78;100548.85;107167;1267;22530;-55
2023/12/14 03:20:21;;;;;;;30.60;10.80;;;;;;;15.61;57.77;100549.01;107121;1263;25337;-54
2023/12/14 03:22:48;;;;;;;23.20;8.90;;;;;;;15.62;57.75;100545.67;107177;1257;25347;-55
2023/12/14 03:25:15;;;;;;;25.80;9.20;;;;;;;15.63;57.78;100552.80;106975;1257;25424;-55
2023/12/14 03:27:42;;;;;;;23.10;10.50;;;;;;;15.63;57.79;100551.73;107047;1255;25347;-55
2023/12/14 03:30:10;;;;;;;30.80;10.80;;;;;;;15.63;57.74;100543.34;107028;1258;25378;-55
2023/12/14 03:32:37;;;;;;;24.10;9.90;;;;;;;15.64;57.68;100544.54;107135;1257;22533;-55
2023/12/14 03:35:08;;;;;;;27.30;10.70;;;;;;;15.64;57.72;100544.16;107140;1254;25545;-55
2023/12/14 03:37:35;;;;;;;24.30;9.90;;;;;;;15.64;57.71;100541.90;107091;1260;22514;-54
2023/12/14 03:40:03;;;;;;;28.70;9.90;;;;;;;15.63;57.67;100541.40;106917;1267;25407;-54
2023/12/14 03:42:30;;;;;;;24.30;9.70;;;;;;;15.63;57.67;100542.65;106672;1262;25371;-55
2023/12/14 03:44:58;;;;;;;25.90;9.40;;;;;;;15.63;57.70;100542.48;106876;1269;25372;-54
2023/12/14 03:47:24;;;;;;;26.20;9.80;;;;;;;15.62;57.67;100535.85;106949;1267;25493;-55
2023/12/14 03:49:52;;;;;;;20.90;9.00;;;;;;;15.62;57.71;100525.88;107140;1254;25372;-55
2023/12/14 03:52:19;;;;;;;18.10;8.30;;;;;;;15.61;57.71;100521.04;107084;1255;25444;-55
2023/12/14 03:54:45;;;;;;;25.80;10.40;;;;;;;15.61;57.63;100527.16;107065;1254;24218;-56
2023/12/14 03:57:12;;;;;;;27.70;10.60;;;;;;;15.61;57.72;100535.76;106265;1264;1002743;-55
2023/12/14 03:59:40;;;;;;;23.30;9.60;;;;;;;15.60;57.73;100529.34;106788;1267;25487;-55
2023/12/14 04:02:07;;;;;;;23.60;9.10;;;;;;;15.59;57.77;100519.58;107058;1254;25356;-55
2023/12/14 04:04:34;;;;;;;24.60;9.30;;;;;;;15.58;57.70;100522.93;107119;1254;25376;-55
2023/12/14 04:07:01;;;;;;;28.40;10.30;;;;;;;15.59;57.80;100532.69;107214;1255;25384;-55
2023/12/14 04:09:29;;;;;;;31.00;11.00;;;;;;;15.59;57.84;100528.88;107063;1263;25459;-55
2023/12/14 04:11:56;;;;;;;23.10;9.70;;;;;;;15.59;57.85;100520.80;107106;1261;25347;-55
2023/12/14 04:14:23;;;;;;;28.50;10.30;;;;;;;15.59;57.84;100515.90;106895;1267;23186;-55
2023/12/14 04:16:51;;;;;;;29.20;10.50;;;;;;;15.59;57.84;100516.25;107219;1260;22570;-55
2023/12/14 04:19:18;;;;;;;31.70;10.50;;;;;;;15.60;57.92;100512.36;107048;1260;25415;-55
2023/12/14 04:21:45;;;;;;;28.70;10.40;;;;;;;15.60;57.92;100516.20;107007;1257;25378;-55
2023/12/14 04:24:12;;;;;;;26.80;9.90;;;;;;;15.60;57.95;100518.27;107039;1260;25415;-54
2023/12/14 04:26:39;;;;;;;25.30;11.00;;;;;;;15.61;57.95;100518.96;107181;1257;25465;-55
2023/12/14 04:29:07;;;;;;;25.80;11.00;;;;;;;15.60;58.01;100519.51;106824;1259;25524;-54
2023/12/14 04:31:34;;;;;;;28.00;10.30;;;;;;;15.60;57.99;100530.52;106974;1256;25378;-55
2023/12/14 04:34:01;;;;;;;30.00;10.00;;;;;;;15.60;58.01;100534.91;107009;1270;25501;-54
2023/12/14 04:36:29;;;;;;;32.00;10.60;;;;;;;15.59;58.04;100537.74;106815;1267;25338;-55
2023/12/14 04:38:56;;;;;;;38.80;11.10;;;;;;;15.59;58.08;100536.89;107141;1251;25350;-54
2023/12/14 04:41:23;;;;;;;34.40;11.20;;;;;;;15.59;58.06;100539.86;107141;1256;25372;-55
2023/12/14 04:43:50;;;;;;;31.20;11.80;;;;;;;15.60;58.14;100536.64;107111;1263;25372;-55
2023/12/14 04:46:17;;;;;;;35.60;12.10;;;;;;;15.60;58.16;100534.38;107127;1257;25492;-55
2023/12/14 04:48:44;;;;;;;29.00;11.20;;;;;;;15.60;58.18;100533.15;107079;1257;25375;-55
2023/12/14 04:51:12;;;;;;;28.10;11.30;;;;;;;15.61;58.22;100541.17;107139;1257;25365;-55
2023/12/14 04:53:39;;;;;;;38.80;12.00;;;;;;;15.61;58.23;100542.05;107016;1253;22520;-55
2023/12/14 04:56:11;;;;;;;31.50;11.30;;;;;;;15.62;58.20;100539.55;107115;1250;25424;-55
2023/12/14 04:58:39;;;;;;;32.60;10.70;;;;;;;15.54;58.41;100534.32;107140;1266;24270;-55
2023/12/14 05:01:07;;;;;;;29.70;10.80;;;;;;;15.48;58.56;100539.83;107079;1254;25889;-55
2023/12/14 05:03:34;;;;;;;35.90;12.30;;;;;;;15.42;58.85;100534.31;107065;1267;25347;-55
2023/12/14 05:06:01;;;;;;;27.50;11.40;;;;;;;15.42;58.92;100536.40;107105;1263;22520;-54
2023/12/14 05:08:28;;;;;;;32.80;10.90;;;;;;;15.42;58.97;100533.79;107204;1254;25347;-54
2023/12/14 05:10:55;;;;;;;27.20;10.80;;;;;;;15.46;58.89;100524.73;107131;1257;25366;-54
2023/12/14 05:13:22;;;;;;;31.40;10.70;;;;;;;15.60;58.49;100519.69;106887;1257;25346;-55
2023/12/14 05:15:51;;;;;;;28.80;10.30;;;;;;;15.64;58.32;100514.77;106805;1267;25351;-55
2023/12/14 05:18:18;;;;;;;31.70;10.90;;;;;;;15.65;58.32;100509.66;107152;1251;24274;-55
2023/12/14 05:20:46;;;;;;;25.50;10.90;;;;;;;15.65;58.33;100504.59;107115;1254;25347;-55
2023/12/14 05:23:13;;;;;;;26.70;11.20;;;;;;;15.66;58.24;100510.14;107034;1254;25379;-55
2023/12/14 05:25:40;;;;;;;31.10;11.00;;;;;;;15.67;58.25;100526.02;107186;1257;25369;-55
2023/12/14 05:28:07;;;;;;;33.30;11.90;;;;;;;15.67;58.16;100534.92;106899;1254;22533;-55
2023/12/14 05:30:34;;;;;;;36.50;11.90;;;;;;;15.69;58.15;100531.02;107083;1255;25394;-55
2023/12/14 05:33:01;;;;;;;31.50;11.00;;;;;;;15.70;58.15;100537.23;107155;1264;25424;-55
2023/12/14 05:35:29;;;;;;;27.70;10.90;;;;;;;15.71;58.10;100533.17;107038;1263;25369;-55
2023/12/14 05:37:56;;;;;;;35.00;11.00;;;;;;;15.72;58.03;100527.35;107090;1257;25472;-55
2023/12/14 05:40:23;;;;;;;29.30;11.40;;;;;;;15.73;58.06;100532.20;107075;1257;25346;-55
2023/12/14 05:42:50;;;;;;;32.30;11.30;;;;;;;15.75;58.03;100537.03;107090;1263;23875;-54
2023/12/14 05:45:18;;;;;;;29.80;10.70;;;;;;;15.75;58.18;100537.00;107106;1263;25435;-55
2023/12/14 05:47:45;;;;;;;40.00;12.20;;;;;;;15.76;58.21;100531.35;106937;1259;25421;-55
2023/12/14 05:50:12;;;;;;;29.50;11.00;;;;;;;15.78;58.08;100523.23;106969;1259;25334;-55
2023/12/14 05:52:42;;;;;;;27.50;11.90;;;;;;;15.80;58.00;100525.60;107046;1257;25406;-55
2023/12/14 05:55:12;;;;;;;30.30;11.70;;;;;;;15.80;58.04;100530.48;107169;1263;25427;-54
2023/12/14 05:57:39;;;;;;;35.30;11.10;;;;;;;15.81;58.08;100533.77;107179;1263;25391;-55
2023/12/14 06:00:07;;;;;;;34.90;11.70;;;;;;;15.81;58.08;100533.58;106737;1259;25350;-54
2023/12/14 06:02:36;;;;;;;27.60;11.10;;;;;;;15.75;58.23;100541.02;107109;1256;25394;-55
2023/12/14 06:05:04;;;;;;;28.50;10.90;;;;;;;15.80;58.13;100550.42;107134;1254;22531;-55
2023/12/14 06:07:31;;;;;;;39.90;12.90;;;;;;;15.82;58.12;100543.52;107204;1256;25456;-54
2023/12/14 06:09:59;;;;;;;31.30;11.30;;;;;;;15.82;58.13;100554.19;107104;1259;25424;-55
2023/12/14 06:12:26;;;;;;;32.40;12.10;;;;;;;15.82;58.10;100548.56;107025;1267;25396;-55
2023/12/14 06:14:53;;;;;;;27.70;11.70;;;;;;;15.82;57.96;100535.98;107020;1263;22526;-55
2023/12/14 06:17:20;;;;;;;31.90;13.10;;;;;;;15.83;57.98;100534.38;107084;1259;22583;-55
2023/12/14 06:19:47;;;;;;;29.10;11.50;;;;;;;15.82;57.95;100528.09;107110;1257;25385;-55
2023/12/14 06:22:14;;;;;;;28.80;11.50;;;;;;;15.82;58.03;100525.31;107056;1257;25375;-55
2023/12/14 06:24:41;;;;;;;29.90;12.90;;;;;;;15.82;57.99;100524.98;107089;1254;25359;-54
2023/12/14 06:27:08;;;;;;;34.20;11.60;;;;;;;15.81;57.97;100520.29;107088;1257;25375;-55
2023/12/14 06:29:35;;;;;;;29.20;11.10;;;;;;;15.80;58.00;100522.96;107082;1256;25497;-55
2023/12/14 06:32:02;;;;;;;27.50;10.90;;;;;;;15.79;58.01;100520.90;107166;1257;25368;-55
2023/12/14 06:34:30;;;;;;;31.80;12.60;;;;;;;15.78;57.96;100523.60;107114;1253;22547;-54
2023/12/14 06:36:59;;;;;;;38.50;13.00;;;;;;;15.77;58.06;100528.69;107079;1267;22528;-55
2023/12/14 06:39:26;;;;;;;24.60;11.10;;;;;;;15.77;58.06;100529.59;107169;1263;25347;-55
2023/12/14 06:41:54;;;;;;;35.50;11.80;;;;;;;15.76;58.14;100514.59;106842;1259;25421;-55
2023/12/14 06:44:21;;;;;;;30.80;11.90;;;;;;;15.75;58.26;100507.09;106813;1269;25344;-55
2023/12/14 06:46:48;;;;;;;27.40;10.70;;;;;;;15.76;58.32;100508.81;107070;1257;25363;-55
2023/12/14 06:49:15;;;;;;;28.50;11.20;;;;;;;15.77;58.37;100508.42;107098;1257;25372;-55
2023/12/14 06:51:41;;;;;;;31.20;12.30;;;;;;;15.78;58.44;100507.66;107164;1257;24276;-57
2023/12/14 06:54:09;;;;;;;29.60;11.40;;;;;;;15.78;58.50;100507.66;106840;1275;25494;-55
2023/12/14 06:56:37;;;;;;;29.80;11.20;;;;;;;15.77;58.50;100503.86;106775;1259;22526;-55
2023/12/14 06:59:04;;;;;;;32.50;11.60;;;;;;;15.81;58.53;100506.13;107020;1256;26515;-55
2023/12/14 07:01:31;;;;;;;30.20;11.00;;;;;;;15.81;58.48;100498.05;106805;1262;25338;-55
2023/12/14 07:03:58;;;;;;;35.30;12.20;;;;;;;15.82;58.48;100506.94;107049;1263;25548;-55
2023/12/14 07:06:26;;;;;;;35.60;13.00;;;;;;;15.83;58.48;100507.77;107093;1257;25372;-55
2023/12/14 07:08:52;;;;;;;39.40;14.40;;;;;;;15.85;58.54;100505.77;107018;1263;22541;-55
2023/12/14 07:11:19;;;;;;;36.00;13.10;;;;;;;15.86;58.50;100502.73;107173;1257;25493;-54
2023/12/14 07:13:47;;;;;;;35.20;12.30;;;;;;;15.89;58.40;100502.24;107183;1256;24217;-55
2023/12/14 07:16:14;;;;;;;33.70;12.80;;;;;;;15.91;58.39;100502.52;106928;1254;25427;-54
2023/12/14 07:18:41;;;;;;;42.50;12.60;;;;;;;15.93;58.44;100503.64;106628;1274;25372;-55
2023/12/14 07:21:08;;;;;;;30.10;11.80;;;;;;;15.93;58.35;100498.73;106966;1257;25423;-54
2023/12/14 07:23:35;;;;;;;38.80;13.20;;;;;;;15.95;58.38;100496.36;107109;1254;25375;-55
2023/12/14 07:26:03;;;;;;;24.90;10.20;;;;;;;15.97;58.34;100495.20;107103;1257;25375;-55
2023/12/14 07:28:33;;;;;;;25.70;10.80;;;;;;;15.98;58.37;100483.94;107179;1254;25424;-55
2023/12/14 07:31:00;;;;;;;25.20;11.20;;;;;;;16.00;58.37;100482.48;107137;1254;25347;-55
2023/12/14 07:33:27;;;;;;;29.40;11.20;;;;;;;16.01;58.34;100477.50;107073;1257;25251;-54
2023/12/14 07:35:55;;;;;;;26.50;12.40;;;;;;;16.03;58.37;100482.81;106794;1257;25375;-55
2023/12/14 07:38:21;;;;;;;30.80;12.70;;;;;;;16.05;58.39;100488.48;107027;1251;25439;-54
2023/12/14 07:40:50;;;;;;;28.50;12.20;;;;;;;16.07;58.37;100489.60;107057;1257;25337;-55
2023/12/14 07:43:17;;;;;;;27.80;12.50;;;;;;;16.09;58.36;100494.45;106806;1269;25417;-55
2023/12/14 07:45:44;;;;;;;32.20;12.10;;;;;;;16.10;58.36;100505.39;107127;1256;25347;-55
2023/12/14 07:48:11;;;;;;;29.60;10.90;;;;;;;16.13;58.26;100500.70;106919;1254;25375;-55
2023/12/14 07:50:38;;;;;;;28.20;11.20;;;;;;;16.15;58.19;100500.27;106731;1258;25372;-55
2023/12/14 07:53:05;;;;;;;27.50;11.40;;;;;;;16.16;58.20;100502.31;106841;1257;25375;-55
2023/12/14 07:55:33;;;;;;;30.30;11.60;;;;;;;16.17;58.12;100504.73;106968;1257;22536;-55
2023/12/14 07:58:00;;;;;;;34.80;12.40;;;;;;;16.17;58.12;100501.55;106644;1266;24358;-55
2023/12/14 08:00:27;;;;;;;30.50;11.60;;;;;;;16.18;58.09;100500.63;106695;1266;25494;-55
2023/12/14 08:02:54;;;;;;;31.30;11.70;;;;;;;16.18;58.19;100494.67;106614;1260;25370;-56
2023/12/14 08:05:21;;;;;;;30.40;10.80;;;;;;;16.19;58.21;100496.05;106940;1263;26637;-56
2023/12/14 08:07:52;;;;;;;34.80;12.50;;;;;;;16.18;58.23;100502.05;106762;1266;25338;-56
2023/12/14 08:10:19;;;;;;;31.30;12.10;;;;;;;16.18;58.32;100504.16;107136;1257;25347;-55
2023/12/14 08:12:51;;;;;;;35.40;12.20;;;;;;;16.19;58.41;100516.15;106383;1257;1014370;-55
2023/12/14 08:15:18;;;;;;;;;;;;;;;16.22;58.41;100516.39;107025;1263;25324;-54
2023/12/14 08:17:45;;;;;;;35.30;13.30;;;;;;;16.23;58.34;100526.65;106763;1266;24707;-54
2023/12/14 08:20:13;;;;;;;28.20;12.70;;;;;;;16.24;58.32;100534.66;106779;1259;25347;-54
2023/12/14 08:22:46;;;;;;;31.20;12.70;;;;;;;16.28;58.05;100531.98;106811;1263;25347;-54
2023/12/14 08:25:14;;;;;;;34.10;12.70;;;;;;;16.30;57.98;100529.64;106925;1266;25500;-55
2023/12/14 08:27:41;;;;;;;36.90;13.60;;;;;;;16.30;57.98;100535.25;107048;1263;22578;-54
2023/12/14 08:30:10;;;;;;;33.40;13.00;;;;;;;16.29;58.04;100542.98;106917;1273;25531;-54
2023/12/14 08:32:38;;;;;;;31.10;12.90;;;;;;;16.29;58.09;100540.54;106925;1266;22539;-54
2023/12/14 08:35:06;;;;;;;33.30;12.90;;;;;;;16.29;58.14;100534.59;107037;1257;25468;-54
2023/12/14 08:37:33;;;;;;;36.10;13.60;;;;;;;16.30;58.10;100542.77;106984;1267;25497;-54
2023/12/14 08:40:00;;;;;;;33.50;13.60;;;;;;;16.31;58.00;100528.55;106964;1263;25468;-54
2023/12/14 08:42:27;;;;;;;38.30;14.30;;;;;;;16.33;57.96;100523.92;107207;1267;23184;-56
2023/12/14 08:44:55;;;;;;;30.10;12.10;;;;;;;16.34;58.00;100519.50;106629;1274;25409;-55
2023/12/14 08:47:22;;;;;;;49.30;16.20;;;;;;;16.35;57.93;100516.64;106986;1264;24348;-56
2023/12/14 08:49:49;;;;;;;36.70;13.20;;;;;;;16.36;57.85;100513.27;106836;1261;25366;-54
2023/12/14 08:52:17;;;;;;;35.50;14.10;;;;;;;16.38;57.65;100515.09;106990;1263;25366;-54
2023/12/14 08:54:44;;;;;;;36.20;13.10;;;;;;;16.39;57.54;100509.60;106840;1259;22529;-55
2023/12/14 08:57:11;;;;;;;33.80;13.30;;;;;;;16.41;57.48;100512.83;106805;1266;23264;-55
2023/12/14 08:59:38;;;;;;;36.80;14.30;;;;;;;16.42;57.45;100508.56;107121;1263;25337;-56
2023/12/14 09:02:09;;;;;;;34.50;12.80;;;;;;;16.43;57.33;100503.64;107143;1263;24235;-55
2023/12/14 09:04:36;;;;;;;35.10;13.50;;;;;;;16.44;57.38;100496.41;107107;1267;25338;-54
2023/12/14 09:07:04;;;;;;;36.40;12.70;;;;;;;16.44;57.33;100492.20;106754;1273;25392;-54
2023/12/14 09:09:32;;;;;;;38.30;15.20;;;;;;;16.43;57.33;100498.20;107065;1263;25501;-54
2023/12/14 09:11:59;;;;;;;53.30;15.50;;;;;;;16.42;57.28;100507.52;106917;1267;24162;-54
2023/12/14 09:14:26;;;;;;;37.20;13.00;;;;;;;16.40;57.27;100509.36;106877;1266;25583;-54
2023/12/14 09:16:53;;;;;;;36.80;13.70;;;;;;;16.40;57.34;100513.60;106895;1257;22646;-54
2023/12/14 09:19:20;;;;;;;28.60;12.20;;;;;;;16.38;57.21;100499.34;106657;1269;25338;-53
2023/12/14 09:21:51;;;;;;;42.00;13.40;;;;;;;16.36;57.30;100490.70;107082;1266;25347;-54
2023/12/14 09:24:18;;;;;;;30.80;12.00;;;;;;;16.34;57.34;100494.45;106892;1267;25423;-54
2023/12/14 09:26:45;;;;;;;30.80;12.40;;;;;;;16.33;57.38;100488.20;106786;1273;22526;-53
2023/12/14 09:29:12;;;;;;;30.60;12.80;;;;;;;16.32;57.33;100481.08;106958;1272;25357;-54
2023/12/14 09:31:43;;;;;;;31.30;12.50;;;;;;;16.29;57.36;100481.36;106456;1274;26641;-55
2023/12/14 09:34:11;;;;;;;34.40;12.70;;;;;;;16.28;57.45;100476.88;106812;1263;22605;-55
2023/12/14 09:36:39;;;;;;;36.70;14.70;;;;;;;16.27;57.50;100480.77;106988;1257;24359;-56
2023/12/14 09:39:10;;;;;;;28.80;12.70;;;;;;;16.25;57.58;100486.09;106880;1271;24202;-54
2023/12/14 09:41:38;;;;;;;38.60;13.00;;;;;;;16.24;57.54;100483.55;106813;1270;25239;-55
2023/12/14 09:44:06;;;;;;;32.50;14.50;;;;;;;16.21;57.64;100477.03;106974;1267;25419;-56
2023/12/14 09:46:36;;;;;;;45.70;15.30;;;;;;;16.19;57.82;100473.27;106951;1255;25243;-55
2023/12/14 09:49:04;;;;;;;37.40;14.90;;;;;;;16.18;57.88;100466.86;106858;1263;24182;-55
2023/12/14 09:51:32;;;;;;;38.70;13.70;;;;;;;16.19;57.95;100465.27;106883;1263;22573;-54
2023/12/14 09:53:59;;;;;;;42.80;14.50;;;;;;;16.19;57.97;100469.27;105440;1273;1003052;-56
2023/12/14 09:56:27;;;;;;;34.60;13.40;;;;;;;16.19;58.03;100474.84;106717;1272;25356;-56
2023/12/14 09:58:55;;;;;;;33.80;13.00;;;;;;;16.19;58.10;100473.10;106951;1258;25426;-56
2023/12/14 10:01:24;;;;;;;32.50;12.90;;;;;;;16.19;58.07;100478.73;107017;1263;22540;-56
2023/12/14 10:04:08;;;;;;;35.00;13.40;;;;;;;16.18;58.07;100481.23;106844;1254;25318;-55
2023/12/14 10:06:36;;;;;;;41.90;15.50;;;;;;;16.18;58.17;100475.77;107034;1264;22565;-55
2023/12/14 10:09:04;;;;;;;30.40;13.90;;;;;;;16.18;58.16;100472.28;106810;1257;25603;-55
2023/12/14 10:11:31;;;;;;;41.80;14.60;;;;;;;16.19;58.26;100470.85;106829;1263;25464;-55
2023/12/14 10:13:58;;;;;;;34.70;13.70;;;;;;;16.22;58.30;100466.68;106863;1254;25337;-55
2023/12/14 10:16:32;;;;;;;41.00;13.50;;;;;;;16.25;58.24;100466.02;106882;1270;22564;-55
2023/12/14 10:19:00;;;;;;;36.30;14.40;;;;;;;16.27;58.27;100476.20;106901;1273;25478;-55
2023/12/14 10:21:27;;;;;;;38.10;14.00;;;;;;;16.30;58.28;100474.70;106773;1257;25455;-55
2023/12/14 10:23:55;;;;;;;37.40;14.30;;;;;;;16.32;58.20;100471.98;106788;1256;24207;-55
2023/12/14 10:26:26;;;;;;;35.80;12.50;;;;;;;16.34;58.20;100470.64;106647;1270;25468;-55
2023/12/14 10:28:53;;;;;;;42.20;15.00;;;;;;;16.36;58.06;100473.70;107135;1272;25347;-55
2023/12/14 10:31:21;;;;;;;27.50;12.00;;;;;;;16.37;57.98;100470.48;106988;1267;25372;-55
2023/12/14 10:33:48;;;;;;;38.30;14.30;;;;;;;16.37;57.84;100467.00;106771;1274;22550;-55
2023/12/14 10:36:22;;;;;;;35.80;14.10;;;;;;;16.37;57.74;100461.02;106538;1274;25346;-55
2023/12/14 10:38:52;;;;;;;37.40;13.70;;;;;;;16.37;57.74;100451.21;106838;1257;25310;-55
2023/12/14 10:41:22;;;;;;;27.90;12.20;;;;;;;16.37;57.61;100444.05;106748;1266;22789;-56
2023/12/14 10:43:50;;;;;;;37.80;13.80;;;;;;;16.36;57.71;100447.10;106939;1266;23200;-55
2023/12/14 10:46:38;;;;;;;37.50;14.10;;;;;;;16.34;57.63;100444.05;107039;1267;22573;-55
2023/12/14 10:49:06;;;;;;;38.20;13.10;;;;;;;16.32;57.65;100444.67;107112;1260;25494;-55
2023/12/14 10:51:34;;;;;;;35.50;13.90;;;;;;;16.30;57.71;100450.14;106884;1274;22531;-56
2023/12/14 10:54:02;;;;;;;26.70;12.20;;;;;;;16.23;57.98;100445.61;106975;1263;25487;-56
2023/12/14 10:56:29;;;;;;;28.00;12.70;;;;;;;16.19;58.13;100450.90;107091;1267;25408;-55
2023/12/14 10:58:57;;;;;;;34.10;14.40;;;;;;;16.19;58.15;100465.61;107064;1267;25418;-54
2023/12/14 11:01:24;;;;;;;31.70;13.70;;;;;;;16.19;58.23;100467.52;107041;1267;25591;-54
2023/12/14 11:03:56;;;;;;;36.30;13.90;;;;;;;16.19;58.35;100463.67;107030;1272;25402;-55